Time;durP1;ratioP1;P1;durP2;ratioP2;P2;SDS_P1;SDS_P2;PMS_P1;PMS_P2;Temp;Humidity;BMP_temperature;BMP_pressure;BME280_temperature;BME280_humidity;BME280_pressure;Samples;Min_cycle;Max_cycle;Signal;HPM_P1;HPM_P2
2022/05/11 00:00:45;;;;;;;6.80;6.07;;;;;;;;;;4946068;28;20209;-76
2022/05/11 00:03:11;;;;;;;5.80;5.20;;;;;;;;;;4952666;28;20218;-77
2022/05/11 00:05:36;;;;;;;6.00;5.50;;;;;;;;;;4952951;28;20180;-77
2022/05/11 00:08:03;;;;;;;5.60;5.10;;;;;;;;;;4952685;28;20190;-76
2022/05/11 00:10:29;;;;;;;5.33;4.83;;;;;;;;;;4952875;28;20188;-77
2022/05/11 00:12:54;;;;;;;4.93;4.20;;;;;;;;;;4948816;28;20194;-78
2022/05/11 00:15:20;;;;;;;4.60;4.20;;;;;;;;;;4949923;28;20213;-78
2022/05/11 00:17:46;;;;;;;4.73;4.33;;;;;;;;;;4954177;28;20179;-78
2022/05/11 00:20:11;;;;;;;4.77;4.37;;;;;;;;;;4950445;28;20262;-78
2022/05/11 00:22:37;;;;;;;5.13;4.63;;;;;;;;;;4950829;28;20190;-77
2022/05/11 00:25:04;;;;;;;4.93;4.53;;;;;;;;;;4948480;28;20217;-78
2022/05/11 00:27:29;;;;;;;5.30;4.80;;;;;;;;;;4951130;28;20180;-77
2022/05/11 00:29:54;;;;;;;4.40;4.00;;;;;;;;;;4950172;28;20187;-77
2022/05/11 00:32:21;;;;;;;4.80;4.30;;;;;;;;;;4952114;28;20551;-78
2022/05/11 00:34:46;;;;;;;4.63;4.23;;;;;;;;;;4946892;28;20215;-77
2022/05/11 00:37:11;;;;;;;5.10;4.60;;;;;;;;;;4951179;28;20186;-78
2022/05/11 00:39:36;;;;;;;4.93;4.43;;;;;;;;;;4949452;28;20187;-77
2022/05/11 00:42:03;;;;;;;4.10;3.80;;;;;;;;;;4948010;28;20212;-77
2022/05/11 00:44:28;;;;;;;4.73;4.33;;;;;;;;;;4961250;28;20210;-77
2022/05/11 00:47:03;;;;;;;4.47;4.07;;;;;;;;;;4948594;28;20187;-77
2022/05/11 00:49:34;;;;;;;4.93;4.53;;;;;;;;;;4946026;28;20183;-77
2022/05/11 00:52:06;;;;;;;5.63;4.47;;;;;;;;;;4955944;28;20202;-77
2022/05/11 00:54:33;;;;;;;4.77;4.27;;;;;;;;;;4947459;28;20252;-78
2022/05/11 00:57:01;;;;;;;4.53;4.13;;;;;;;;;;4951811;28;20292;-78
2022/05/11 00:59:30;;;;;;;4.20;3.73;;;;;;;;;;4949159;28;20185;-75
2022/05/11 01:01:58;;;;;;;5.33;4.67;;;;;;;;;;4947986;28;20185;-77
2022/05/11 01:04:24;;;;;;;4.83;4.40;;;;;;;;;;4948436;28;20214;-77
2022/05/11 01:06:49;;;;;;;4.67;4.27;;;;;;;;;;4947776;28;20206;-78
2022/05/11 01:09:14;;;;;;;4.87;4.47;;;;;;;;;;4948546;28;20245;-78
2022/05/11 01:11:51;;;;;;;6.10;4.63;;;;;;;;;;4949274;28;20216;-77
2022/05/11 01:14:19;;;;;;;4.70;4.30;;;;;;;;;;4947947;28;20177;-77
2022/05/11 01:16:44;;;;;;;4.67;4.27;;;;;;;;;;4951610;28;20194;-77
2022/05/11 01:19:23;;;;;;;4.90;4.50;;;;;;;;;;4952956;28;20192;-77
2022/05/11 01:21:54;;;;;;;4.87;4.30;;;;;;;;;;4951304;28;20175;-77
2022/05/11 01:24:40;;;;;;;6.07;4.73;;;;;;;;;;4952086;28;20278;-78
2022/05/11 01:27:25;;;;;;;4.97;4.57;;;;;;;;;;4952583;28;20228;-76
2022/05/11 01:29:51;;;;;;;5.20;4.77;;;;;;;;;;4952118;28;20189;-78
2022/05/11 01:32:16;;;;;;;5.73;4.50;;;;;;;;;;4951170;28;20218;-78
2022/05/11 01:34:42;;;;;;;8.07;4.37;;;;;;;;;;4954349;28;20238;-77
2022/05/11 01:37:07;;;;;;;5.53;4.80;;;;;;;;;;4951852;28;20226;-77
2022/05/11 01:39:32;;;;;;;5.80;4.50;;;;;;;;;;4955245;28;20200;-77
2022/05/11 01:41:57;;;;;;;4.93;4.53;;;;;;;;;;4953125;28;20186;-77
2022/05/11 01:44:23;;;;;;;4.77;4.27;;;;;;;;;;4953643;28;20182;-78
2022/05/11 01:46:52;;;;;;;6.27;5.07;;;;;;;;;;4950845;28;20189;-77
2022/05/11 01:49:18;;;;;;;5.00;4.60;;;;;;;;;;4953584;28;20196;-78
2022/05/11 01:51:44;;;;;;;4.90;4.50;;;;;;;;;;4950962;28;20201;-77
2022/05/11 01:54:09;;;;;;;5.53;4.90;;;;;;;;;;4952349;28;20185;-77
2022/05/11 01:56:34;;;;;;;5.17;4.60;;;;;;;;;;4951247;28;20194;-76
2022/05/11 01:58:59;;;;;;;4.90;4.50;;;;;;;;;;4953367;28;20181;-77
2022/05/11 02:01:25;;;;;;;5.20;4.70;;;;;;;;;;4952307;28;20265;-76
2022/05/11 02:03:51;;;;;;;5.40;4.90;;;;;;;;;;4956083;28;20185;-77
2022/05/11 02:09:00;;;;;;;4.53;4.13;;;;;;;;;;4952980;28;20196;-77
2022/05/11 02:11:26;;;;;;;5.13;4.63;;;;;;;;;;4953748;28;20226;-77
2022/05/11 02:13:51;;;;;;;6.57;4.50;;;;;;;;;;4952184;28;20190;-78
2022/05/11 02:16:17;;;;;;;5.70;5.07;;;;;;;;;;4952875;28;20177;-77
2022/05/11 02:18:42;;;;;;;5.83;5.07;;;;;;;;;;4952802;28;20181;-77
2022/05/11 02:21:07;;;;;;;5.30;4.80;;;;;;;;;;4947051;28;20194;-77
2022/05/11 02:23:33;;;;;;;5.63;5.13;;;;;;;;;;4956787;28;20186;-77
2022/05/11 02:25:58;;;;;;;6.03;4.57;;;;;;;;;;4952117;28;20184;-77
2022/05/11 02:28:24;;;;;;;5.47;5.07;;;;;;;;;;4952740;28;20279;-77
2022/05/11 02:30:51;;;;;;;5.83;5.33;;;;;;;;;;4955947;28;20183;-77
2022/05/11 02:33:16;;;;;;;6.07;4.90;;;;;;;;;;4950356;28;20304;-77
2022/05/11 02:35:43;;;;;;;5.10;4.70;;;;;;;;;;4949644;28;20208;-77
2022/05/11 02:38:09;;;;;;;5.17;4.73;;;;;;;;;;4951952;28;20224;-77
2022/05/11 02:40:36;;;;;;;4.73;4.33;;;;;;;;;;4949914;28;20210;-77
2022/05/11 02:43:01;;;;;;;4.80;4.40;;;;;;;;;;4951245;28;20235;-77
2022/05/11 02:45:27;;;;;;;5.47;4.60;;;;;;;;;;4952945;28;20268;-78
2022/05/11 02:47:53;;;;;;;8.20;4.87;;;;;;;;;;4952484;28;20175;-77
2022/05/11 02:50:20;;;;;;;5.40;4.47;;;;;;;;;;4947832;28;20220;-77
2022/05/11 02:52:45;;;;;;;5.03;4.63;;;;;;;;;;4949219;28;20205;-77
2022/05/11 02:55:11;;;;;;;5.33;4.83;;;;;;;;;;4950945;28;20202;-77
2022/05/11 02:57:36;;;;;;;5.13;4.70;;;;;;;;;;4950072;28;20270;-78
2022/05/11 03:00:03;;;;;;;6.27;5.27;;;;;;;;;;4950290;28;20205;-78
2022/05/11 03:02:28;;;;;;;5.40;4.90;;;;;;;;;;4954115;28;20180;-77
2022/05/11 03:04:53;;;;;;;5.63;5.13;;;;;;;;;;4950278;28;20188;-76
2022/05/11 03:07:19;;;;;;;6.03;5.10;;;;;;;;;;4957559;28;20327;-77
2022/05/11 03:09:44;;;;;;;6.70;5.00;;;;;;;;;;4953371;28;20263;-77
2022/05/11 03:12:11;;;;;;;5.60;5.10;;;;;;;;;;4954981;28;20213;-77
2022/05/11 03:14:36;;;;;;;5.60;5.10;;;;;;;;;;4948455;28;20184;-77
2022/05/11 03:17:04;;;;;;;5.53;5.03;;;;;;;;;;4952242;28;20252;-76
2022/05/11 03:19:29;;;;;;;6.73;5.07;;;;;;;;;;4967762;28;20182;-76
2022/05/11 03:21:55;;;;;;;5.00;4.60;;;;;;;;;;4952092;28;20187;-77
2022/05/11 03:24:20;;;;;;;5.27;4.77;;;;;;;;;;4951274;28;20185;-76
2022/05/11 03:26:45;;;;;;;6.00;5.40;;;;;;;;;;4954201;28;20189;-77
2022/05/11 03:29:11;;;;;;;5.00;4.30;;;;;;;;;;4952228;28;20258;-77
2022/05/11 03:31:37;;;;;;;6.07;5.57;;;;;;;;;;4947912;28;20250;-77
2022/05/11 03:36:50;;;;;;;5.97;5.33;;;;;;;;;;4946516;28;20220;-78
2022/05/11 03:39:15;;;;;;;5.80;5.20;;;;;;;;;;4967195;28;20545;-77
2022/05/11 03:41:41;;;;;;;5.60;5.07;;;;;;;;;;4945849;28;20185;-77
2022/05/11 03:44:06;;;;;;;6.43;4.80;;;;;;;;;;4951789;28;20200;-77
2022/05/11 03:46:32;;;;;;;5.57;4.73;;;;;;;;;;4949318;28;20240;-76
2022/05/11 03:48:57;;;;;;;5.70;5.20;;;;;;;;;;4952136;28;20183;-77
2022/05/11 03:51:24;;;;;;;4.97;4.57;;;;;;;;;;4953276;28;20207;-78
2022/05/11 03:53:49;;;;;;;6.80;4.57;;;;;;;;;;4950200;28;20248;-77
2022/05/11 03:56:15;;;;;;;5.07;4.67;;;;;;;;;;4948661;28;20184;-77
2022/05/11 03:58:40;;;;;;;7.13;4.93;;;;;;;;;;4950566;28;20209;-77
2022/05/11 04:01:07;;;;;;;5.40;4.90;;;;;;;;;;4946993;28;20208;-77
2022/05/11 04:03:33;;;;;;;5.50;5.00;;;;;;;;;;4951128;28;21478;-77
2022/05/11 04:05:58;;;;;;;5.83;4.77;;;;;;;;;;4946636;28;20185;-77
2022/05/11 04:08:23;;;;;;;5.27;4.87;;;;;;;;;;4950917;28;20189;-77
2022/05/11 04:10:48;;;;;;;5.90;5.30;;;;;;;;;;4952466;28;20181;-77
2022/05/11 04:13:14;;;;;;;5.30;4.90;;;;;;;;;;4951143;28;20183;-77
2022/05/11 04:15:39;;;;;;;5.23;4.73;;;;;;;;;;4949941;28;20487;-77
2022/05/11 04:18:05;;;;;;;5.17;4.77;;;;;;;;;;4947062;28;20212;-77
2022/05/11 04:20:30;;;;;;;5.17;4.67;;;;;;;;;;4948962;28;20187;-77
2022/05/11 04:22:56;;;;;;;5.93;4.80;;;;;;;;;;4954424;28;20185;-77
2022/05/11 04:25:21;;;;;;;5.13;4.67;;;;;;;;;;4953463;28;20192;-77
2022/05/11 04:27:48;;;;;;;4.73;4.33;;;;;;;;;;4950687;28;20186;-77
2022/05/11 04:30:14;;;;;;;5.00;4.43;;;;;;;;;;4948569;28;20188;-77
2022/05/11 04:32:40;;;;;;;5.73;5.23;;;;;;;;;;4949831;28;20211;-77
2022/05/11 04:35:05;;;;;;;5.43;4.60;;;;;;;;;;4951890;28;20283;-77
2022/05/11 04:37:31;;;;;;;5.40;4.60;;;;;;;;;;4949020;28;20184;-77
2022/05/11 04:39:56;;;;;;;5.27;4.77;;;;;;;;;;4946655;28;20196;-77
2022/05/11 04:42:22;;;;;;;4.90;4.50;;;;;;;;;;4946174;28;20282;-77
2022/05/11 04:44:47;;;;;;;5.30;4.83;;;;;;;;;;4949132;28;21567;-77
2022/05/11 04:47:13;;;;;;;5.30;4.90;;;;;;;;;;4948530;28;20215;-77
2022/05/11 04:49:39;;;;;;;6.00;5.50;;;;;;;;;;4949557;28;20275;-77
2022/05/11 04:52:22;;;;;;;4.70;4.30;;;;;;;;;;4942906;28;20293;-76
2022/05/11 04:54:48;;;;;;;5.90;5.40;;;;;;;;;;4942922;28;20199;-84
2022/05/11 04:57:14;;;;;;;5.27;4.67;;;;;;;;;;4948817;28;20187;-78
2022/05/11 04:59:40;;;;;;;5.43;4.93;;;;;;;;;;4953452;28;20173;-77
2022/05/11 05:02:06;;;;;;;5.03;4.63;;;;;;;;;;4950086;28;20187;-76
2022/05/11 05:04:31;;;;;;;4.90;4.50;;;;;;;;;;4951471;28;20188;-77
2022/05/11 05:06:57;;;;;;;5.43;4.93;;;;;;;;;;4949293;28;20206;-77
2022/05/11 05:09:22;;;;;;;5.67;5.17;;;;;;;;;;4953183;28;20230;-76
2022/05/11 05:11:48;;;;;;;5.30;4.90;;;;;;;;;;4949008;28;20299;-77
2022/05/11 05:14:14;;;;;;;4.90;4.47;;;;;;;;;;4954544;28;20188;-77
2022/05/11 05:16:39;;;;;;;4.83;4.43;;;;;;;;;;4948763;28;20177;-77
2022/05/11 05:19:05;;;;;;;5.70;5.20;;;;;;;;;;4950265;28;20276;-77
2022/05/11 05:21:31;;;;;;;4.73;4.33;;;;;;;;;;4947597;28;20185;-77
2022/05/11 05:23:56;;;;;;;4.83;4.43;;;;;;;;;;4947687;28;20502;-77
2022/05/11 05:26:21;;;;;;;4.97;4.57;;;;;;;;;;4949861;28;20189;-77
2022/05/11 05:31:31;;;;;;;4.83;4.43;;;;;;;;;;4947700;28;20822;-77
2022/05/11 05:34:00;;;;;;;4.97;4.47;;;;;;;;;;4949460;29;20222;-76
2022/05/11 05:36:26;;;;;;;7.23;4.67;;;;;;;;;;4949001;28;20189;-77
2022/05/11 05:38:52;;;;;;;4.80;4.27;;;;;;;;;;4950098;28;20191;-77
2022/05/11 05:41:17;;;;;;;5.10;4.60;;;;;;;;;;4951702;28;20182;-76
2022/05/11 05:43:43;;;;;;;4.53;4.13;;;;;;;;;;4947099;28;20392;-76
2022/05/11 05:46:08;;;;;;;5.40;4.33;;;;;;;;;;4949203;28;20209;-77
2022/05/11 05:48:33;;;;;;;7.20;4.00;;;;;;;;;;4951617;28;20174;-77
2022/05/11 05:51:06;;;;;;;4.53;3.83;;;;;;;;;;4950883;28;20206;-77
2022/05/11 05:53:32;;;;;;;4.33;3.90;;;;;;;;;;4967948;28;20196;-76
2022/05/11 05:55:57;;;;;;;4.50;4.17;;;;;;;;;;4947408;28;20199;-77
2022/05/11 05:58:27;;;;;;;4.20;3.90;;;;;;;;;;4946136;28;20220;-85
2022/05/11 06:00:52;;;;;;;5.97;4.20;;;;;;;;;;4947827;28;20182;-84
2022/05/11 06:03:25;;;;;;;4.70;4.30;;;;;;;;;;4953175;28;20211;-78
2022/05/11 06:05:50;;;;;;;4.90;4.50;;;;;;;;;;4956169;28;20233;-78
2022/05/11 06:08:16;;;;;;;4.67;4.27;;;;;;;;;;4956222;28;20175;-78
2022/05/11 06:10:42;;;;;;;4.27;3.97;;;;;;;;;;4955243;28;20190;-77
2022/05/11 06:13:08;;;;;;;4.17;3.77;;;;;;;;;;4947059;28;20195;-76
2022/05/11 06:15:35;;;;;;;4.27;3.97;;;;;;;;;;4956234;28;20182;-78
2022/05/11 06:18:00;;;;;;;5.07;4.53;;;;;;;;;;4959441;28;20226;-77
2022/05/11 06:20:25;;;;;;;4.20;3.90;;;;;;;;;;4954899;28;20180;-77
2022/05/11 06:22:50;;;;;;;4.43;3.87;;;;;;;;;;4954451;28;20191;-78
2022/05/11 06:25:18;;;;;;;4.33;3.93;;;;;;;;;;4952498;28;20256;-78
2022/05/11 06:27:44;;;;;;;4.33;3.93;;;;;;;;;;4954817;28;20189;-78
2022/05/11 06:30:09;;;;;;;4.17;3.87;;;;;;;;;;4951074;28;20187;-77
2022/05/11 06:32:34;;;;;;;4.80;4.13;;;;;;;;;;4960480;28;20216;-78
2022/05/11 06:35:00;;;;;;;4.43;4.03;;;;;;;;;;4953013;28;20281;-77
2022/05/11 06:37:25;;;;;;;4.23;3.83;;;;;;;;;;4955614;28;20190;-77
2022/05/11 06:39:50;;;;;;;3.90;3.60;;;;;;;;;;4954056;28;20265;-78
2022/05/11 06:42:16;;;;;;;4.00;3.70;;;;;;;;;;4955275;28;20192;-78
2022/05/11 06:44:42;;;;;;;4.73;4.23;;;;;;;;;;4955884;28;20183;-78
2022/05/11 06:47:07;;;;;;;4.30;3.97;;;;;;;;;;4950067;28;20182;-78
2022/05/11 06:49:32;;;;;;;4.73;4.33;;;;;;;;;;4953305;28;20276;-77
2022/05/11 06:51:58;;;;;;;4.00;3.60;;;;;;;;;;4955406;28;20256;-77
2022/05/11 06:59:55;;;;;;;4.93;4.27;;;;;;;;;;4955104;28;20306;-78
2022/05/11 07:02:20;;;;;;;4.40;4.00;;;;;;;;;;4954840;28;20211;-78
2022/05/11 07:04:45;;;;;;;4.67;4.03;;;;;;;;;;4952731;28;20267;-77
2022/05/11 07:07:10;;;;;;;3.83;3.53;;;;;;;;;;4954917;28;20299;-78
2022/05/11 07:09:36;;;;;;;5.50;5.10;;;;;;;;;;4957930;28;20229;-78
2022/05/11 07:15:06;;;;;;;3.83;3.53;;;;;;;;;;4873365;29;20194;-76
2022/05/11 07:17:38;;;;;;;4.27;3.87;;;;;;;;;;4877329;29;20184;-78
2022/05/11 07:20:08;;;;;;;4.20;3.77;;;;;;;;;;4875438;29;20187;-78
2022/05/11 07:22:33;;;;;;;4.57;3.97;;;;;;;;;;4869958;29;20183;-78
2022/05/11 07:24:58;;;;;;;4.53;4.03;;;;;;;;;;4875597;29;20194;-78
2022/05/11 07:27:24;;;;;;;4.20;3.80;;;;;;;;;;4886556;29;20197;-77
2022/05/11 07:29:50;;;;;;;3.93;3.50;;;;;;;;;;4878599;29;20276;-77
2022/05/11 07:32:15;;;;;;;4.10;3.70;;;;;;;;;;4862105;29;20220;-78
2022/05/11 07:34:40;;;;;;;3.83;3.53;;;;;;;;;;4876874;29;20252;-77
2022/05/11 07:37:06;;;;;;;4.23;3.83;;;;;;;;;;4882534;29;20211;-77
2022/05/11 07:39:31;;;;;;;5.10;3.90;;;;;;;;;;4874574;29;20255;-77
2022/05/11 07:41:57;;;;;;;5.63;4.63;;;;;;;;;;4880137;29;20236;-78
2022/05/11 07:44:22;;;;;;;5.13;4.57;;;;;;;;;;4880924;29;20234;-77
2022/05/11 07:46:48;;;;;;;6.70;4.40;;;;;;;;;;4941694;28;20196;-78
2022/05/11 07:49:13;;;;;;;4.87;4.30;;;;;;;;;;4953516;28;20214;-76
2022/05/11 07:51:41;;;;;;;6.33;3.70;;;;;;;;;;4953443;28;20234;-78
2022/05/11 07:54:06;;;;;;;5.17;4.67;;;;;;;;;;4952571;28;20199;-78
2022/05/11 08:01:59;;;;;;;6.10;4.00;;;;;;;;;;4953528;28;20190;-78
2022/05/11 08:04:24;;;;;;;4.03;3.73;;;;;;;;;;4952126;28;20186;-77
2022/05/11 08:06:50;;;;;;;4.50;4.10;;;;;;;;;;4952245;28;20184;-78
2022/05/11 08:09:15;;;;;;;6.97;5.07;;;;;;;;;;4967543;28;20237;-77
2022/05/11 08:11:40;;;;;;;4.57;4.17;;;;;;;;;;4954393;28;20259;-78
2022/05/11 08:14:05;;;;;;;4.13;3.83;;;;;;;;;;4953618;28;20181;-77
2022/05/11 08:16:31;;;;;;;5.07;4.67;;;;;;;;;;4954099;28;20179;-77
2022/05/11 08:18:56;;;;;;;4.20;3.77;;;;;;;;;;4953156;28;20186;-78
2022/05/11 08:21:21;;;;;;;4.30;3.90;;;;;;;;;;4952157;28;20195;-78
2022/05/11 08:23:48;;;;;;;3.90;3.60;;;;;;;;;;4955258;28;20174;-77
2022/05/11 08:26:14;;;;;;;4.40;4.00;;;;;;;;;;4949179;28;20178;-78
2022/05/11 08:28:39;;;;;;;3.57;3.27;;;;;;;;;;4954138;28;20195;-77
2022/05/11 08:33:48;;;;;;;4.17;3.80;;;;;;;;;;4947547;28;20290;-78
2022/05/11 08:36:16;;;;;;;3.50;3.30;;;;;;;;;;4954449;28;20184;-77
2022/05/11 08:38:42;;;;;;;4.40;4.00;;;;;;;;;;4953735;28;20256;-77
2022/05/11 08:41:26;;;;;;;4.03;3.50;;;;;;;;;;4950416;28;20190;-77
2022/05/11 08:43:54;;;;;;;4.30;3.90;;;;;;;;;;4954551;28;20177;-78
2022/05/11 08:46:25;;;;;;;4.07;3.60;;;;;;;;;;4954735;28;20239;-77
2022/05/11 08:48:58;;;;;;;5.27;3.53;;;;;;;;;;4955501;28;20218;-77
2022/05/11 08:51:30;;;;;;;4.73;4.33;;;;;;;;;;4952223;28;20232;-78
2022/05/11 08:54:03;;;;;;;5.17;4.73;;;;;;;;;;4951392;28;20182;-77
2022/05/11 08:56:29;;;;;;;4.23;3.83;;;;;;;;;;4952883;28;20269;-77
2022/05/11 08:58:54;;;;;;;4.60;3.90;;;;;;;;;;4951188;28;20289;-76
2022/05/11 09:01:28;;;;;;;4.07;3.73;;;;;;;;;;4952669;28;20220;-77
2022/05/11 09:03:54;;;;;;;3.90;3.60;;;;;;;;;;4955362;28;20186;-77
2022/05/11 09:06:24;;;;;;;3.93;3.63;;;;;;;;;;4951488;28;20190;-77
2022/05/11 09:08:50;;;;;;;3.93;3.63;;;;;;;;;;4961377;28;20176;-78
2022/05/11 09:11:23;;;;;;;4.87;4.33;;;;;;;;;;4954810;28;20205;-77
2022/05/11 09:13:49;;;;;;;4.20;3.80;;;;;;;;;;4951310;28;20181;-77
2022/05/11 09:16:18;;;;;;;5.43;4.93;;;;;;;;;;4952428;28;20260;-77
2022/05/11 09:18:43;;;;;;;4.27;3.83;;;;;;;;;;4951698;28;20190;-78
2022/05/11 09:21:13;;;;;;;5.30;4.80;;;;;;;;;;4951000;28;20187;-78
2022/05/11 09:23:40;;;;;;;5.00;4.60;;;;;;;;;;4953929;28;20246;-77
2022/05/11 09:26:14;;;;;;;4.00;3.67;;;;;;;;;;4949779;28;20188;-78
2022/05/11 09:28:41;;;;;;;4.03;3.73;;;;;;;;;;4951666;28;20190;-77
2022/05/11 09:31:08;;;;;;;4.47;4.13;;;;;;;;;;4951503;28;20182;-77
2022/05/11 09:33:57;;;;;;;5.10;4.70;;;;;;;;;;4952879;28;20219;-77
2022/05/11 09:36:35;;;;;;;4.80;4.30;;;;;;;;;;4936348;28;20203;-77
2022/05/11 09:39:05;;;;;;;4.27;3.97;;;;;;;;;;4953900;28;20179;-78
2022/05/11 09:41:33;;;;;;;4.67;3.60;;;;;;;;;;4954908;28;20182;-76
2022/05/11 09:43:58;;;;;;;4.80;4.23;;;;;;;;;;4955922;28;20204;-77
2022/05/11 09:46:26;;;;;;;5.23;3.60;;;;;;;;;;4955110;28;20208;-77
2022/05/11 09:48:58;;;;;;;4.03;3.73;;;;;;;;;;4958532;28;20236;-77
2022/05/11 09:51:33;;;;;;;4.97;3.80;;;;;;;;;;4954084;28;20208;-76
2022/05/11 09:54:02;;;;;;;4.00;3.70;;;;;;;;;;4950252;28;20176;-77
2022/05/11 09:56:27;;;;;;;4.37;4.07;;;;;;;;;;4970048;28;20183;-77
2022/05/11 09:58:53;;;;;;;3.60;3.30;;;;;;;;;;4956336;28;20177;-77
2022/05/11 10:01:26;;;;;;;3.80;3.50;;;;;;;;;;4956344;28;20212;-78
2022/05/11 10:03:54;;;;;;;4.10;3.80;;;;;;;;;;4957219;28;20263;-77
2022/05/11 10:06:20;;;;;;;3.50;3.20;;;;;;;;;;4956657;28;20243;-78
2022/05/11 10:08:48;;;;;;;3.80;3.50;;;;;;;;;;4955876;28;20189;-77
2022/05/11 10:11:31;;;;;;;3.63;3.33;;;;;;;;;;4954398;28;20221;-77
2022/05/11 10:14:02;;;;;;;4.07;3.40;;;;;;;;;;4954798;28;20170;-78
2022/05/11 10:22:25;;;;;;;3.73;3.07;;;;;;;;;;4952870;28;20184;-77
2022/05/11 10:24:57;;;;;;;3.53;3.23;;;;;;;;;;4969062;28;20185;-77
2022/05/11 10:27:22;;;;;;;3.63;3.33;;;;;;;;;;4968905;28;20212;-77
2022/05/11 10:30:02;;;;;;;3.35;3.10;;;;;;;;;;4968511;28;20181;-77
2022/05/11 10:32:37;;;;;;;3.42;3.22;;;;;;;;;;4953235;28;20216;-77
2022/05/11 10:35:14;;;;;;;3.08;2.88;;;;;;;;;;4951098;28;20224;-76
2022/05/11 10:37:56;;;;;;;3.75;3.45;;;;;;;;;;4953292;28;20247;-77
2022/05/11 10:40:40;;;;;;;4.50;3.75;;;;;;;;;;4953928;28;20182;-77
2022/05/11 10:43:05;;;;;;;3.65;3.35;;;;;;;;;;4954386;28;20181;-77
2022/05/11 10:45:39;;;;;;;5.43;3.65;;;;;;;;;;4958873;28;20210;-77
2022/05/11 10:48:10;;;;;;;4.88;3.22;;;;;;;;;;4955968;28;20182;-78
2022/05/11 10:50:54;;;;;;;3.97;3.67;;;;;;;;;;4953618;28;20184;-77
2022/05/11 10:53:19;;;;;;;3.78;3.47;;;;;;;;;;4955289;28;20257;-77
2022/05/11 10:55:58;;;;;;;4.13;3.63;;;;;;;;;;4954201;28;20296;-77
2022/05/11 10:58:54;;;;;;;3.80;3.50;;;;;;;;;;4952291;28;20424;-77
2022/05/11 11:01:21;;;;;;;3.92;3.58;;;;;;;;;;4940420;28;20189;-77
2022/05/11 11:04:13;;;;;;;4.20;3.20;;;;;;;;;;4954692;28;20181;-77
2022/05/11 11:07:13;;;;;;;4.13;3.15;;;;;;;;;;4951689;28;20181;-77
2022/05/11 11:09:47;;;;;;;3.72;3.42;;;;;;;;;;4951600;28;20207;-77
2022/05/11 11:12:31;;;;;;;3.95;3.10;;;;;;;;;;4951014;28;20208;-77
2022/05/11 11:14:58;;;;;;;4.38;3.70;;;;;;;;;;4957778;28;20173;-77
2022/05/11 11:17:25;;;;;;;4.10;3.35;;;;;;;;;;4953742;28;20200;-77
2022/05/11 11:19:52;;;;;;;3.50;3.20;;;;;;;;;;4955975;28;20177;-77
2022/05/11 11:22:17;;;;;;;3.85;3.55;;;;;;;;;;4952978;28;20186;-77
2022/05/11 11:25:03;;;;;;;3.70;3.40;;;;;;;;;;4954055;28;20177;-77
2022/05/11 11:27:48;;;;;;;4.72;3.55;;;;;;;;;;4977559;28;20201;-77
2022/05/11 11:30:13;;;;;;;3.47;3.17;;;;;;;;;;4952440;28;20197;-78
2022/05/11 11:32:58;;;;;;;3.35;3.15;;;;;;;;;;4955563;28;20193;-77
2022/05/11 11:35:23;;;;;;;3.67;3.28;;;;;;;;;;4949871;28;20251;-77
2022/05/11 11:37:59;;;;;;;3.47;3.27;;;;;;;;;;4966251;28;20174;-77
2022/05/11 11:40:26;;;;;;;4.05;3.58;;;;;;;;;;4954839;28;20478;-77
2022/05/11 11:42:52;;;;;;;3.30;3.10;;;;;;;;;;4953399;28;20174;-77
2022/05/11 11:45:26;;;;;;;3.63;3.38;;;;;;;;;;4953500;28;20192;-77
2022/05/11 11:48:03;;;;;;;4.47;3.20;;;;;;;;;;4961370;28;20187;-77
2022/05/11 11:50:44;;;;;;;3.70;3.40;;;;;;;;;;4957838;28;20196;-77
2022/05/11 11:53:21;;;;;;;3.47;3.17;;;;;;;;;;4953581;28;20224;-77
2022/05/11 11:55:47;;;;;;;3.45;3.25;;;;;;;;;;4953298;28;20170;-77
2022/05/11 11:58:38;;;;;;;5.18;3.00;;;;;;;;;;4951447;28;20205;-77
2022/05/11 12:01:08;;;;;;;3.50;3.20;;;;;;;;;;4949733;28;20212;-77
2022/05/11 12:03:36;;;;;;;3.22;3.03;;;;;;;;;;4960758;28;20204;-77
2022/05/11 12:17:02;;;;;;;3.35;3.05;;;;;;;;;;4951849;28;20189;-77
2022/05/11 12:19:37;;;;;;;3.63;3.33;;;;;;;;;;4947117;28;20173;-77
2022/05/11 12:22:13;;;;;;;3.63;3.33;;;;;;;;;;4953884;28;20177;-77
2022/05/11 12:24:40;;;;;;;3.80;3.53;;;;;;;;;;4952839;28;20268;-77
2022/05/11 12:27:13;;;;;;;3.92;3.55;;;;;;;;;;4943819;28;20241;-77
2022/05/11 12:29:59;;;;;;;3.00;2.80;;;;;;;;;;4948428;28;20182;-77
2022/05/11 12:32:27;;;;;;;2.92;2.72;;;;;;;;;;4951701;28;20237;-77
2022/05/11 12:34:53;;;;;;;3.83;3.08;;;;;;;;;;4959365;28;20285;-77
2022/05/11 12:37:32;;;;;;;3.65;3.35;;;;;;;;;;4954788;28;20188;-77
2022/05/11 12:40:02;;;;;;;3.40;3.10;;;;;;;;;;4951886;28;20209;-77
2022/05/11 12:42:48;;;;;;;3.88;3.47;;;;;;;;;;4949708;28;20196;-77
2022/05/11 12:45:32;;;;;;;3.67;3.38;;;;;;;;;;4966232;28;20197;-78
2022/05/11 12:47:59;;;;;;;3.60;3.30;;;;;;;;;;4947765;28;20184;-78
2022/05/11 12:50:38;;;;;;;3.85;3.55;;;;;;;;;;4951966;28;20193;-77
2022/05/11 12:53:06;;;;;;;4.22;3.47;;;;;;;;;;4952831;28;20273;-77
2022/05/11 12:55:34;;;;;;;4.55;3.15;;;;;;;;;;4950161;28;20188;-77
2022/05/11 12:58:00;;;;;;;4.47;3.28;;;;;;;;;;4952364;28;20185;-77
2022/05/11 13:00:26;;;;;;;4.28;3.70;;;;;;;;;;4951496;28;20165;-77
2022/05/11 13:02:51;;;;;;;3.85;3.55;;;;;;;;;;4955306;28;20181;-77
2022/05/11 13:05:18;;;;;;;3.55;3.25;;;;;;;;;;4947814;28;20177;-77
2022/05/11 13:07:57;;;;;;;4.43;3.30;;;;;;;;;;4958254;28;20206;-77
2022/05/11 13:10:36;;;;;;;3.70;3.40;;;;;;;;;;4952184;28;20402;-77
2022/05/11 13:13:04;;;;;;;4.05;3.75;;;;;;;;;;4950370;28;20557;-77
2022/05/11 13:15:31;;;;;;;4.22;3.83;;;;;;;;;;4961955;28;20176;-77
2022/05/11 13:17:56;;;;;;;3.45;3.15;;;;;;;;;;4957572;28;20240;-77
2022/05/11 13:20:23;;;;;;;3.60;3.30;;;;;;;;;;4958558;28;20185;-77
2022/05/11 13:23:00;;;;;;;4.00;3.50;;;;;;;;;;4953678;28;20268;-77
2022/05/11 13:25:39;;;;;;;3.88;3.58;;;;;;;;;;4955334;28;20225;-77
2022/05/11 13:28:20;;;;;;;3.53;3.33;;;;;;;;;;4955787;28;20252;-76
2022/05/11 13:30:46;;;;;;;3.90;3.60;;;;;;;;;;4955278;28;20269;-77
2022/05/11 13:33:29;;;;;;;3.85;3.55;;;;;;;;;;4954186;28;20277;-77
2022/05/11 13:36:08;;;;;;;4.00;3.60;;;;;;;;;;4954226;28;20285;-77
2022/05/11 13:38:33;;;;;;;4.13;3.83;;;;;;;;;;4954728;28;20189;-77
2022/05/11 13:41:00;;;;;;;4.20;3.90;;;;;;;;;;4956027;28;20180;-78
2022/05/11 13:43:31;;;;;;;4.32;4.00;;;;;;;;;;4955364;28;20205;-77
2022/05/11 13:46:00;;;;;;;4.28;3.88;;;;;;;;;;4968885;28;20186;-77
2022/05/11 13:48:28;;;;;;;3.90;3.60;;;;;;;;;;4955433;28;20188;-77
2022/05/11 13:51:04;;;;;;;3.90;3.60;;;;;;;;;;4955950;28;20182;-77
2022/05/11 13:53:31;;;;;;;4.63;3.92;;;;;;;;;;4953341;28;20228;-77
2022/05/11 13:56:02;;;;;;;4.18;3.78;;;;;;;;;;4949604;28;20186;-77
2022/05/11 13:58:47;;;;;;;4.40;4.00;;;;;;;;;;4952671;28;20194;-77
2022/05/11 14:01:14;;;;;;;7.75;3.70;;;;;;;;;;4948150;28;20182;-77
2022/05/11 14:03:45;;;;;;;4.60;3.47;;;;;;;;;;4954830;29;20184;-77
2022/05/11 14:06:16;;;;;;;3.97;3.70;;;;;;;;;;4955158;28;20184;-77
2022/05/11 14:08:42;;;;;;;3.90;3.50;;;;;;;;;;4952797;28;20197;-77
2022/05/11 14:11:07;;;;;;;6.35;3.83;;;;;;;;;;4953136;28;20178;-77
2022/05/11 14:13:33;;;;;;;5.47;3.63;;;;;;;;;;4951859;28;20284;-77
2022/05/11 14:15:58;;;;;;;3.45;3.25;;;;;;;;;;4954458;28;20181;-77
2022/05/11 14:18:25;;;;;;;4.03;3.60;;;;;;;;;;4947222;28;20178;-77
2022/05/11 14:20:50;;;;;;;3.53;3.00;;;;;;;;;;4953155;28;20186;-77
2022/05/11 14:23:15;;;;;;;4.65;3.50;;;;;;;;;;4948313;28;20188;-78
2022/05/11 14:25:41;;;;;;;3.35;3.05;;;;;;;;;;4946471;28;20190;-77
2022/05/11 14:28:06;;;;;;;5.43;3.20;;;;;;;;;;4949161;28;20710;-77
2022/05/11 14:30:33;;;;;;;3.78;3.47;;;;;;;;;;4944878;28;20240;-77
2022/05/11 14:32:58;;;;;;;4.38;2.95;;;;;;;;;;4951417;28;20269;-77
2022/05/11 14:35:24;;;;;;;3.50;3.20;;;;;;;;;;4950099;28;20233;-77
2022/05/11 14:37:50;;;;;;;3.83;3.53;;;;;;;;;;4949650;28;20192;-77
2022/05/11 14:40:18;;;;;;;3.17;2.97;;;;;;;;;;4950615;28;20188;-76
2022/05/11 14:42:43;;;;;;;3.13;2.92;;;;;;;;;;4945412;28;20193;-77
2022/05/11 14:45:09;;;;;;;3.70;2.85;;;;;;;;;;4952283;28;20185;-77
2022/05/11 14:47:35;;;;;;;4.18;3.00;;;;;;;;;;4953218;28;20493;-77
2022/05/11 14:50:01;;;;;;;3.38;3.08;;;;;;;;;;4948021;28;20174;-77
2022/05/11 14:52:26;;;;;;;3.90;3.42;;;;;;;;;;4955362;28;20197;-77
2022/05/11 14:54:51;;;;;;;7.80;4.10;;;;;;;;;;4954860;28;20222;-77
2022/05/11 15:02:45;;;;;;;5.82;3.60;;;;;;;;;;4953459;28;20208;-77
2022/05/11 15:05:14;;;;;;;4.90;3.50;;;;;;;;;;4955847;28;20173;-77
2022/05/11 15:07:39;;;;;;;3.20;3.00;;;;;;;;;;4955260;28;20177;-77
2022/05/11 15:10:05;;;;;;;3.42;3.00;;;;;;;;;;4952861;28;20257;-76
2022/05/11 15:15:14;;;;;;;4.22;3.47;;;;;;;;;;4949841;28;20284;-77
2022/05/11 15:17:40;;;;;;;3.40;3.10;;;;;;;;;;4950846;28;20237;-77
2022/05/11 15:20:06;;;;;;;2.92;2.70;;;;;;;;;;4951147;28;20170;-77
2022/05/11 15:22:33;;;;;;;6.88;3.20;;;;;;;;;;4950863;28;20188;-77
2022/05/11 15:24:58;;;;;;;3.47;3.00;;;;;;;;;;4950249;28;20267;-77
2022/05/11 15:27:23;;;;;;;2.97;2.75;;;;;;;;;;4950763;28;20189;-77
2022/05/11 15:29:49;;;;;;;3.22;3.03;;;;;;;;;;4952828;28;20245;-77
2022/05/11 15:32:19;;;;;;;3.33;2.85;;;;;;;;;;4949814;28;20205;-77
2022/05/11 15:34:44;;;;;;;5.03;2.92;;;;;;;;;;4952248;28;20248;-77
2022/05/11 15:37:10;;;;;;;3.65;3.00;;;;;;;;;;4949027;28;20186;-78
2022/05/11 15:39:35;;;;;;;3.58;3.17;;;;;;;;;;4946054;28;20178;-77